createdAt,value
2019-01-25T00:00:54.272Z,60.43
2019-01-25T00:03:24.500Z,60.92
2019-01-25T00:05:51.851Z,60.73
2019-01-25T00:08:19.203Z,60.60
2019-01-25T00:10:46.620Z,60.93
2019-01-25T00:13:14.034Z,60.42
2019-01-25T00:15:41.576Z,60.16
2019-01-25T00:18:08.980Z,59.33
2019-01-25T00:20:36.697Z,59.07
2019-01-25T00:23:03.721Z,59.68
2019-01-25T00:25:30.829Z,59.82
2019-01-25T00:27:58.246Z,59.78
2019-01-25T00:30:25.602Z,59.78
2019-01-25T00:32:52.974Z,59.35
2019-01-25T00:35:20.414Z,59.34
2019-01-25T00:37:48.173Z,59.45
2019-01-25T00:40:17.292Z,59.59
2019-01-25T00:42:44.337Z,61.29
2019-01-25T00:45:11.982Z,60.47
2019-01-25T00:47:40.510Z,60.12
2019-01-25T00:50:12.034Z,59.73
2019-01-25T00:52:39.387Z,59.16
2019-01-25T00:55:07.923Z,59.91
2019-01-25T00:57:35.306Z,59.80
2019-01-25T01:00:08.170Z,59.88
2019-01-25T01:02:35.266Z,60.33
2019-01-25T01:05:03.210Z,59.95
2019-01-25T01:07:30.301Z,59.93
2019-01-25T01:09:57.347Z,59.42
2019-01-25T01:12:24.430Z,59.58
2019-01-25T01:14:52.943Z,59.87
2019-01-25T01:17:20.339Z,59.82
2019-01-25T01:19:47.394Z,59.67
2019-01-25T01:22:14.439Z,59.41
2019-01-25T01:24:41.520Z,58.16
2019-01-25T01:27:08.606Z,59.04
2019-01-25T01:29:36.042Z,60.10
2019-01-25T01:32:03.307Z,60.02
2019-01-25T01:34:31.049Z,59.76
2019-01-25T01:36:58.405Z,59.49
2019-01-25T01:39:25.858Z,59.86
2019-01-25T01:41:52.911Z,59.40
2019-01-25T01:44:20.262Z,59.59
2019-01-25T01:46:47.618Z,59.41
2019-01-25T01:49:14.969Z,59.50
2019-01-25T01:51:42.426Z,60.15
2019-01-25T01:54:09.889Z,61.02
2019-01-25T01:56:37.546Z,60.44
2019-01-25T01:59:04.604Z,59.63
2019-01-25T02:01:31.665Z,59.68
2019-01-25T02:03:58.711Z,60.95
2019-01-25T02:06:25.784Z,60.93
2019-01-25T02:08:53.748Z,60.47
2019-01-25T02:11:20.809Z,60.04
2019-01-25T02:13:47.865Z,60.14
2019-01-25T02:16:14.925Z,60.19
2019-01-25T02:18:41.970Z,60.14
2019-01-25T02:21:09.658Z,60.87
2019-01-25T02:23:36.802Z,61.01
2019-01-25T02:26:04.079Z,61.76
2019-01-25T02:28:31.181Z,61.73
2019-01-25T02:30:58.246Z,61.00
2019-01-25T02:33:25.920Z,60.58
2019-01-25T02:35:53.273Z,60.38
2019-01-25T02:38:20.306Z,59.53
2019-01-25T02:40:47.934Z,59.55
2019-01-25T02:43:15.538Z,60.57
2019-01-25T02:45:42.594Z,60.04
2019-01-25T02:48:09.627Z,60.72
2019-01-25T02:50:37.060Z,61.32
2019-01-25T02:53:04.292Z,61.09
2019-01-25T02:55:32.109Z,61.45
2019-01-25T02:57:59.778Z,60.63
2019-01-25T03:00:26.858Z,60.84
2019-01-25T03:02:54.594Z,60.40
2019-01-25T03:05:23.061Z,60.38
2019-01-25T03:07:50.158Z,60.16
2019-01-25T03:10:18.283Z,60.49
2019-01-25T03:12:45.481Z,60.97
2019-01-25T03:15:15.119Z,60.86
2019-01-25T03:17:42.171Z,61.07
2019-01-25T03:20:10.076Z,60.81
2019-01-25T03:22:37.110Z,60.42
2019-01-25T03:25:05.455Z,59.77
2019-01-25T03:27:34.119Z,59.34
2019-01-25T03:30:01.188Z,58.95
2019-01-25T03:32:28.277Z,59.03
2019-01-25T03:34:55.378Z,59.84
2019-01-25T03:37:22.449Z,59.91
2019-01-25T03:39:49.518Z,60.00
2019-01-25T03:42:16.632Z,59.91
2019-01-25T03:44:43.673Z,59.35
2019-01-25T03:47:10.721Z,59.65
2019-01-25T03:49:37.785Z,59.36
2019-01-25T03:52:04.859Z,59.04
2019-01-25T03:54:31.917Z,58.99
2019-01-25T03:56:58.984Z,59.10
2019-01-25T03:59:26.035Z,59.68
2019-01-25T04:01:53.109Z,59.55
2019-01-25T04:04:20.183Z,59.01
2019-01-25T04:06:47.253Z,59.03
2019-01-25T04:09:14.319Z,59.50
2019-01-25T04:11:42.041Z,59.21
2019-01-25T04:14:09.909Z,59.14
2019-01-25T04:16:38.902Z,58.91
2019-01-25T04:19:06.014Z,58.87
2019-01-25T04:21:33.092Z,59.65
2019-01-25T04:24:00.536Z,60.03
2019-01-25T04:26:27.618Z,59.90
2019-01-25T04:28:56.445Z,60.47
2019-01-25T04:31:23.529Z,60.58
2019-01-25T04:33:50.589Z,60.23
2019-01-25T04:36:17.690Z,59.67
2019-01-25T04:38:44.745Z,60.16
2019-01-25T04:41:12.079Z,60.79
2019-01-25T04:43:39.191Z,60.08
2019-01-25T04:46:06.283Z,60.08
2019-01-25T04:48:33.343Z,60.39
2019-01-25T04:51:06.059Z,59.80
2019-01-25T04:53:35.256Z,60.46
2019-01-25T04:56:02.338Z,60.21
2019-01-25T04:58:30.677Z,60.34
2019-01-25T05:01:06.121Z,60.50
2019-01-25T05:03:33.173Z,60.61
2019-01-25T05:06:00.262Z,61.45
2019-01-25T05:08:27.674Z,61.39
2019-01-25T05:10:54.749Z,60.72
2019-01-25T05:13:23.511Z,61.00
2019-01-25T05:15:51.211Z,61.79
2019-01-25T05:18:18.528Z,61.74
2019-01-25T05:20:46.293Z,60.96
2019-01-25T05:23:13.645Z,60.92
2019-01-25T05:25:41.166Z,61.11
2019-01-25T05:28:13.791Z,60.57
2019-01-25T05:30:53.845Z,60.81
2019-01-25T05:33:20.902Z,60.29
2019-01-25T05:35:48.543Z,60.70
2019-01-25T05:38:16.202Z,60.55
2019-01-25T05:40:43.451Z,61.07
2019-01-25T05:43:12.653Z,61.03
2019-01-25T05:45:43.226Z,60.80
2019-01-25T05:48:10.771Z,61.32
2019-01-25T05:50:38.674Z,61.49
2019-01-25T05:53:06.066Z,61.59
2019-01-25T05:55:33.187Z,61.52
2019-01-25T05:58:01.571Z,61.39
2019-01-25T06:00:32.342Z,61.74
2019-01-25T06:03:08.446Z,61.57
2019-01-25T06:05:35.945Z,61.54
2019-01-25T06:08:11.250Z,61.51
2019-01-25T06:10:38.334Z,61.12
2019-01-25T06:13:05.457Z,61.30
2019-01-25T06:15:32.508Z,61.27
2019-01-25T06:18:03.298Z,61.56
2019-01-25T06:20:30.341Z,61.60
2019-01-25T06:22:57.402Z,61.68
2019-01-25T06:25:24.481Z,61.77
2019-01-25T06:27:51.528Z,62.35
2019-01-25T06:30:18.716Z,62.03
2019-01-25T06:32:46.944Z,61.75
2019-01-25T06:35:15.400Z,62.67
2019-01-25T06:37:42.840Z,62.76
2019-01-25T06:40:09.916Z,62.47
2019-01-25T06:42:36.960Z,63.03
2019-01-25T06:45:05.630Z,63.13
2019-01-25T06:47:32.684Z,63.36
2019-01-25T06:49:59.788Z,63.41
2019-01-25T06:52:26.841Z,63.50
2019-01-25T06:54:54.235Z,63.97
2019-01-25T06:57:33.108Z,63.32
2019-01-25T07:00:01.179Z,63.41
2019-01-25T07:02:32.940Z,63.77
2019-01-25T07:05:00.019Z,63.38
2019-01-25T07:07:30.925Z,63.50
2019-01-25T07:09:58.287Z,63.34
2019-01-25T07:12:26.358Z,63.43
2019-01-25T07:14:53.426Z,63.83
2019-01-25T07:17:21.985Z,64.01
2019-01-25T07:19:50.042Z,64.47
2019-01-25T07:22:17.416Z,64.40
2019-01-25T07:24:44.969Z,64.30
2019-01-25T07:27:12.635Z,64.12
2019-01-25T07:29:40.081Z,64.15
2019-01-25T07:32:07.224Z,63.51
2019-01-25T07:34:34.311Z,64.13
2019-01-25T07:37:01.389Z,63.32
2019-01-25T07:39:30.116Z,62.64
2019-01-25T07:41:59.428Z,63.02
2019-01-25T07:44:26.585Z,62.86
2019-01-25T07:46:54.092Z,61.70
2019-01-25T07:49:21.191Z,60.57
2019-01-25T07:51:49.020Z,60.27
2019-01-25T07:54:16.720Z,60.21
2019-01-25T07:56:44.118Z,59.91
2019-01-25T07:59:12.235Z,59.83
2019-01-25T08:01:40.003Z,59.46
2019-01-25T08:04:07.581Z,59.67
2019-01-25T08:06:34.963Z,59.50
2019-01-25T08:09:02.243Z,59.68
2019-01-25T08:11:30.666Z,59.17
2019-01-25T08:13:59.023Z,60.18
2019-01-25T08:16:26.082Z,60.23
2019-01-25T08:18:53.171Z,60.20
2019-01-25T08:21:20.270Z,59.24
2019-01-25T08:23:47.319Z,59.48
2019-01-25T08:26:15.594Z,58.91
2019-01-25T08:28:43.202Z,58.97
2019-01-25T08:31:10.275Z,58.52
2019-01-25T08:33:38.802Z,58.37
2019-01-25T08:36:07.247Z,58.18
2019-01-25T08:38:34.309Z,59.62
2019-01-25T08:41:01.662Z,59.66
2019-01-25T08:43:28.855Z,58.88
2019-01-25T08:45:55.901Z,58.27
2019-01-25T08:48:24.042Z,58.50
2019-01-25T08:50:51.391Z,58.41
2019-01-25T08:53:19.667Z,58.09
2019-01-25T08:55:47.092Z,59.04
2019-01-25T08:58:15.188Z,58.50
2019-01-25T09:00:42.623Z,58.38
2019-01-25T09:03:10.416Z,57.92
2019-01-25T09:05:38.177Z,58.70
2019-01-25T09:08:05.259Z,58.85
2019-01-25T09:10:33.831Z,58.35
2019-01-25T09:13:02.287Z,58.93
2019-01-25T09:15:29.745Z,59.47
2019-01-25T09:17:57.100Z,59.01
2019-01-25T09:20:24.454Z,60.47
2019-01-25T09:22:51.936Z,61.87
2019-01-25T09:25:19.018Z,61.43
2019-01-25T09:27:46.718Z,62.31
2019-01-25T09:30:16.125Z,62.67
2019-01-25T09:32:44.809Z,62.97
2019-01-25T09:35:12.773Z,64.13
2019-01-25T09:37:40.229Z,64.19
2019-01-25T09:40:09.936Z,63.72
2019-01-25T09:42:39.554Z,64.47
2019-01-25T09:45:08.447Z,65.03
2019-01-25T09:47:37.522Z,65.18
2019-01-25T09:50:06.222Z,65.34
2019-01-25T09:52:33.658Z,65.07
2019-01-25T09:55:00.757Z,65.11
2019-01-25T09:57:29.647Z,64.68
2019-01-25T09:59:56.773Z,64.54
2019-01-25T10:02:23.930Z,63.65
2019-01-25T10:04:51.006Z,62.79
2019-01-25T10:07:20.308Z,63.09
2019-01-25T10:09:47.395Z,63.96
2019-01-25T10:12:14.535Z,62.44
2019-01-25T10:14:42.704Z,62.47
2019-01-25T10:17:10.798Z,60.92
2019-01-25T10:19:37.859Z,62.14
2019-01-25T10:22:04.925Z,63.18
2019-01-25T10:24:31.973Z,60.89
2019-01-25T10:27:00.235Z,59.78
2019-01-25T10:29:27.728Z,59.28
2019-01-25T10:31:55.138Z,59.11
2019-01-25T10:34:22.175Z,59.24
2019-01-25T10:36:49.505Z,59.92
2019-01-25T10:39:16.583Z,58.96
2019-01-25T10:41:43.662Z,58.14
2019-01-25T10:44:10.728Z,58.66
2019-01-25T10:46:39.162Z,57.13
2019-01-25T10:49:06.215Z,58.87
2019-01-25T10:51:33.970Z,58.49
2019-01-25T10:54:01.039Z,57.75
2019-01-25T10:56:28.312Z,57.45
2019-01-25T10:58:55.473Z,58.60
2019-01-25T11:01:22.548Z,57.71
2019-01-25T11:03:50.230Z,57.04
2019-01-25T11:06:18.337Z,56.76
2019-01-25T11:08:45.383Z,56.23
2019-01-25T11:11:12.809Z,56.13
2019-01-25T11:13:40.775Z,56.72
2019-01-25T11:16:11.945Z,56.49
2019-01-25T11:18:38.046Z,57.25
2019-01-25T11:21:05.521Z,57.90
2019-01-25T11:23:33.671Z,57.91
2019-01-25T11:26:01.538Z,58.30
2019-01-25T11:28:29.511Z,57.79
2019-01-25T11:30:56.939Z,58.33
2019-01-25T11:33:24.525Z,58.93
2019-01-25T11:35:51.877Z,57.98
2019-01-25T11:38:19.441Z,57.24
2019-01-25T11:40:46.848Z,56.89
2019-01-25T11:43:14.251Z,57.31
2019-01-25T11:45:42.325Z,56.66
2019-01-25T11:48:12.141Z,56.29
2019-01-25T11:50:40.004Z,57.39
2019-01-25T11:53:07.618Z,56.41
2019-01-25T11:55:35.777Z,57.84
2019-01-25T11:58:02.992Z,57.50
2019-01-25T12:00:31.419Z,58.45
2019-01-25T12:02:59.780Z,58.12
2019-01-25T12:05:26.847Z,57.36
2019-01-25T12:07:54.335Z,56.77
2019-01-25T12:10:24.662Z,57.00
2019-01-25T12:12:52.173Z,56.28
2019-01-25T12:15:21.430Z,56.42
2019-01-25T12:17:50.219Z,56.93
2019-01-25T12:20:20.340Z,55.97
2019-01-25T12:22:48.635Z,55.21
2019-01-25T12:25:16.119Z,55.67
2019-01-25T12:27:43.179Z,55.25
2019-01-25T12:30:18.078Z,55.82
2019-01-25T12:32:45.710Z,54.11
2019-01-25T12:35:13.507Z,53.65
2019-01-25T12:37:42.054Z,54.58
2019-01-25T12:40:11.052Z,54.75
2019-01-25T12:42:38.186Z,53.68
2019-01-25T12:45:08.038Z,53.53
2019-01-25T12:47:35.573Z,53.71
2019-01-25T12:50:03.736Z,53.25
2019-01-25T12:52:32.172Z,54.34
2019-01-25T12:54:59.229Z,52.95
2019-01-25T12:57:27.290Z,53.03
2019-01-25T12:59:54.358Z,52.04
2019-01-25T13:02:21.746Z,53.47
2019-01-25T13:04:48.888Z,52.82
2019-01-25T13:07:16.583Z,53.17
2019-01-25T13:09:43.755Z,53.01
2019-01-25T13:12:11.163Z,53.43
2019-01-25T13:14:38.369Z,53.98
2019-01-25T13:17:05.614Z,53.56
2019-01-25T13:19:33.126Z,53.94
2019-01-25T13:22:00.886Z,54.00
2019-01-25T13:24:28.195Z,53.74
2019-01-25T13:26:55.594Z,53.75
2019-01-25T13:29:26.465Z,54.49
2019-01-25T13:31:51.712Z,55.27
2019-01-25T13:34:20.162Z,54.47
2019-01-25T13:36:47.239Z,54.59
2019-01-25T13:39:14.727Z,53.74
2019-01-25T13:41:41.892Z,53.37
2019-01-25T13:44:08.976Z,54.81
2019-01-25T13:46:37.930Z,54.72
2019-01-25T13:49:06.232Z,54.29
2019-01-25T13:51:35.430Z,53.91
2019-01-25T13:54:03.146Z,54.01
2019-01-25T13:56:31.320Z,53.75
2019-01-25T13:58:58.427Z,53.61
2019-01-25T14:01:34.374Z,53.22
2019-01-25T14:03:55.788Z,54.07
2019-01-25T14:06:25.032Z,54.26
2019-01-25T14:08:52.119Z,53.61
2019-01-25T14:11:20.383Z,53.97
2019-01-25T14:13:47.496Z,53.62
2019-01-25T14:16:14.556Z,53.19
2019-01-25T14:18:44.924Z,53.72
2019-01-25T14:21:14.204Z,54.55
2019-01-25T14:23:43.106Z,55.04
2019-01-25T14:26:11.587Z,54.55
2019-01-25T14:28:40.214Z,54.89
2019-01-25T14:31:07.594Z,55.12
2019-01-25T14:33:34.717Z,54.73
2019-01-25T14:36:02.510Z,54.04
2019-01-25T14:38:29.911Z,54.40
2019-01-25T14:40:56.963Z,55.54
2019-01-25T14:43:25.807Z,54.61
2019-01-25T14:45:53.023Z,54.94
2019-01-25T14:48:21.212Z,56.04
2019-01-25T14:50:48.274Z,55.98
2019-01-25T14:53:16.562Z,56.32
2019-01-25T14:55:44.735Z,55.52
2019-01-25T14:58:11.833Z,55.78
2019-01-25T15:00:39.430Z,56.14
2019-01-25T15:03:07.298Z,56.67
2019-01-25T15:05:34.656Z,56.47
2019-01-25T15:08:02.112Z,57.02
2019-01-25T15:10:29.365Z,56.66
2019-01-25T15:12:58.113Z,56.39
2019-01-25T15:15:25.533Z,55.82
2019-01-25T15:17:56.543Z,56.81
2019-01-25T15:20:26.149Z,56.42
2019-01-25T15:22:53.251Z,56.08
2019-01-25T15:25:20.860Z,56.42
2019-01-25T15:27:47.922Z,57.04
2019-01-25T15:30:17.855Z,57.78
2019-01-25T15:32:46.086Z,57.58
2019-01-25T15:35:15.801Z,57.14
2019-01-25T15:37:43.004Z,56.69
2019-01-25T15:40:10.918Z,56.92
2019-01-25T15:42:38.193Z,58.32
2019-01-25T15:45:07.221Z,56.93
2019-01-25T15:47:35.387Z,57.50
2019-01-25T15:50:03.915Z,58.86
2019-01-25T15:52:31.432Z,57.37
2019-01-25T15:55:00.292Z,58.56
2019-01-25T15:57:27.463Z,58.23
2019-01-25T15:59:54.716Z,57.95
2019-01-25T16:02:21.787Z,59.39
2019-01-25T16:04:51.058Z,59.49
2019-01-25T16:07:18.582Z,58.94
2019-01-25T16:09:45.970Z,58.95
2019-01-25T16:12:13.057Z,59.86
2019-01-25T16:14:40.248Z,59.81
2019-01-25T16:17:07.593Z,59.85
2019-01-25T16:19:34.658Z,60.02
2019-01-25T16:22:02.811Z,60.77
2019-01-25T16:24:30.474Z,60.96
2019-01-25T16:26:57.932Z,60.85
2019-01-25T16:29:25.736Z,61.68
2019-01-25T16:31:53.055Z,61.66
2019-01-25T16:34:22.250Z,61.66
2019-01-25T16:36:50.908Z,61.40
2019-01-25T16:39:17.977Z,61.60
2019-01-25T16:41:45.435Z,61.92
2019-01-25T16:44:12.800Z,62.97
2019-01-25T16:46:40.351Z,61.78
2019-01-25T16:49:09.651Z,62.21
2019-01-25T16:51:36.720Z,62.93
2019-01-25T16:54:04.715Z,62.57
2019-01-25T16:56:32.122Z,63.34
2019-01-25T16:59:01.155Z,63.61
2019-01-25T17:01:28.268Z,64.04
2019-01-25T17:03:57.056Z,63.39
2019-01-25T17:06:24.407Z,62.18
2019-01-25T17:08:51.603Z,62.95
2019-01-25T17:11:18.689Z,62.82
2019-01-25T17:13:45.788Z,62.72
2019-01-25T17:16:13.050Z,62.94
2019-01-25T17:18:40.139Z,63.13
2019-01-25T17:21:07.216Z,63.48
2019-01-25T17:23:34.407Z,63.14
2019-01-25T17:26:01.488Z,63.19
2019-01-25T17:28:30.163Z,62.97
2019-01-25T17:30:57.269Z,63.48
2019-01-25T17:33:25.531Z,63.47
2019-01-25T17:35:52.706Z,63.48
2019-01-25T17:38:19.777Z,62.88
2019-01-25T17:40:47.210Z,63.33
2019-01-25T17:43:14.670Z,62.76
2019-01-25T17:45:42.846Z,63.13
2019-01-25T17:48:10.171Z,63.55
2019-01-25T17:50:38.682Z,62.55
2019-01-25T17:53:07.061Z,62.47
2019-01-25T17:55:36.431Z,62.97
2019-01-25T17:58:08.237Z,63.14
2019-01-25T18:00:45.546Z,63.96
2019-01-25T18:03:13.109Z,64.48
2019-01-25T18:05:40.773Z,63.47
2019-01-25T18:08:10.481Z,64.02
2019-01-25T18:10:37.685Z,64.12
2019-01-25T18:13:05.091Z,64.09
2019-01-25T18:15:32.546Z,64.72
2019-01-25T18:18:01.542Z,65.07
2019-01-25T18:20:29.554Z,65.21
2019-01-25T18:22:56.985Z,65.56
2019-01-25T18:25:34.402Z,66.54
2019-01-25T18:28:02.222Z,66.06
2019-01-25T18:30:36.973Z,66.50
2019-01-25T18:33:04.048Z,66.66
2019-01-25T18:35:31.666Z,67.18
2019-01-25T18:37:59.527Z,66.46
2019-01-25T18:40:26.938Z,67.56
2019-01-25T18:42:54.007Z,67.72
2019-01-25T18:45:22.000Z,67.88
2019-01-25T18:47:50.281Z,68.63
2019-01-25T18:50:17.546Z,70.01
2019-01-25T18:52:44.690Z,69.67
2019-01-25T18:55:14.376Z,69.81
2019-01-25T18:57:41.458Z,70.85
2019-01-25T19:00:12.222Z,70.65
2019-01-25T19:02:40.442Z,71.06
2019-01-25T19:05:08.548Z,71.25
2019-01-25T19:07:36.274Z,70.51
2019-01-25T19:10:05.667Z,71.26
2019-01-25T19:12:33.127Z,71.86
2019-01-25T19:15:04.590Z,72.28
2019-01-25T19:17:30.219Z,71.56
2019-01-25T19:19:57.290Z,71.41
2019-01-25T19:22:24.868Z,72.70
2019-01-25T19:24:52.071Z,72.10
2019-01-25T19:27:19.145Z,72.04
2019-01-25T19:29:47.765Z,71.94
2019-01-25T19:32:14.928Z,72.18
2019-01-25T19:34:42.016Z,73.05
2019-01-25T19:37:09.134Z,73.26
2019-01-25T19:39:37.207Z,73.10
2019-01-25T19:42:04.475Z,73.21
2019-01-25T19:44:31.774Z,72.05
2019-01-25T19:46:59.375Z,72.65
2019-01-25T19:49:26.835Z,72.52
2019-01-25T19:51:54.335Z,71.72
2019-01-25T19:54:22.368Z,71.46
2019-01-25T19:56:50.123Z,71.25
2019-01-25T19:59:17.244Z,71.30
2019-01-25T20:01:44.627Z,71.49
2019-01-25T20:04:11.718Z,71.31
2019-01-25T20:06:40.244Z,71.32
2019-01-25T20:09:09.251Z,72.41
2019-01-25T20:11:36.551Z,72.28
2019-01-25T20:14:05.687Z,72.73
2019-01-25T20:16:32.755Z,72.30
2019-01-25T20:19:01.653Z,73.24
2019-01-25T20:21:28.858Z,72.92
2019-01-25T20:23:55.954Z,72.77
2019-01-25T20:26:23.027Z,72.27
2019-01-25T20:28:50.225Z,73.74
2019-01-25T20:31:17.299Z,73.42
2019-01-25T20:33:45.985Z,74.44
2019-01-25T20:36:13.065Z,74.67
2019-01-25T20:38:40.276Z,73.08
2019-01-25T20:41:08.327Z,73.30
2019-01-25T20:43:35.795Z,73.83
2019-01-25T20:46:04.915Z,73.27
2019-01-25T20:48:31.994Z,74.19
2019-01-25T20:50:59.093Z,74.07
2019-01-25T20:53:27.272Z,74.03
2019-01-25T20:55:54.635Z,74.57
2019-01-25T20:58:22.059Z,74.86
2019-01-25T21:00:51.771Z,74.97
2019-01-25T21:03:19.387Z,75.31
2019-01-25T21:05:46.482Z,74.64
2019-01-25T21:08:13.550Z,74.82
2019-01-25T21:10:40.649Z,74.58
2019-01-25T21:13:09.537Z,75.14
2019-01-25T21:15:36.930Z,75.63
2019-01-25T21:18:04.995Z,76.09
2019-01-25T21:20:37.835Z,76.07
2019-01-25T21:23:05.583Z,77.14
2019-01-25T21:25:33.145Z,77.10
2019-01-25T21:28:00.250Z,76.82
2019-01-25T21:30:29.960Z,76.34
2019-01-25T21:32:57.032Z,77.08
2019-01-25T21:35:25.931Z,76.71
2019-01-25T21:37:53.029Z,77.40
2019-01-25T21:40:21.935Z,77.71
2019-01-25T21:42:49.047Z,77.46
2019-01-25T21:45:18.698Z,76.71
2019-01-25T21:47:45.789Z,77.89
2019-01-25T21:50:15.164Z,78.52
2019-01-25T21:52:42.246Z,77.88
2019-01-25T21:55:10.771Z,78.32
2019-01-25T21:57:37.878Z,77.86
2019-01-25T22:00:08.478Z,77.07
2019-01-25T22:02:36.331Z,76.17
2019-01-25T22:05:04.510Z,76.70
2019-01-25T22:07:31.658Z,77.05
2019-01-25T22:09:58.719Z,77.35
2019-01-25T22:12:26.174Z,78.21
2019-01-25T22:14:53.297Z,78.36
2019-01-25T22:17:21.078Z,78.57
2019-01-25T22:19:48.502Z,78.79
2019-01-25T22:22:15.988Z,79.92
2019-01-25T22:24:43.346Z,79.49
2019-01-25T22:27:10.695Z,79.17
2019-01-25T22:29:38.155Z,79.04
2019-01-25T22:32:05.506Z,79.28
2019-01-25T22:34:33.273Z,79.92
2019-01-25T22:37:01.357Z,80.13
2019-01-25T22:39:29.538Z,80.24
2019-01-25T22:41:56.975Z,79.42
2019-01-25T22:44:24.338Z,79.86
2019-01-25T22:46:51.417Z,80.01
2019-01-25T22:49:18.773Z,79.98
2019-01-25T22:51:46.391Z,80.15
2019-01-25T22:54:13.795Z,79.64
2019-01-25T22:56:41.966Z,80.76
2019-01-25T22:59:09.684Z,80.97
2019-01-25T23:01:38.882Z,81.42
2019-01-25T23:05:09.114Z,81.29
2019-01-25T23:07:37.075Z,80.77
2019-01-25T23:10:22.678Z,80.69
2019-01-25T23:12:50.225Z,79.52
2019-01-25T23:15:18.156Z,79.69
2019-01-25T23:17:45.218Z,79.94
2019-01-25T23:22:41.071Z,81.20
2019-01-25T23:25:09.648Z,80.97
2019-01-25T23:27:36.705Z,79.95
2019-01-25T23:30:08.330Z,80.20
2019-01-25T23:32:35.911Z,80.64
2019-01-25T23:35:03.681Z,80.04
2019-01-25T23:37:30.733Z,79.75
2019-01-25T23:39:58.484Z,80.06
2019-01-25T23:42:25.893Z,79.65
2019-01-25T23:44:53.610Z,80.04
2019-01-25T23:47:22.594Z,80.31
2019-01-25T23:49:50.078Z,80.35
2019-01-25T23:52:17.709Z,80.69
2019-01-25T23:54:45.141Z,80.90
2019-01-25T23:57:12.838Z,80.88
2019-01-25T23:59:40.286Z,80.65
